Time;durP1;ratioP1;P1;durP2;ratioP2;P2;SDS_P1;SDS_P2;PMS_P1;PMS_P2;Temp;Humidity;BMP_temperature;BMP_pressure;BME280_temperature;BME280_humidity;BME280_pressure;Samples;Min_cycle;Max_cycle;Signal;HPM_P1;HPM_P2
2023/05/20 00:01:38;;;;;;;8.48;3.63;;;;;;;10.63;67.85;102322.19;5072460;28;20121;-61
2023/05/20 00:04:04;;;;;;;6.80;3.55;;;;;;;10.55;67.95;102324.13;5054214;28;20105;-61
2023/05/20 00:06:32;;;;;;;7.22;4.30;;;;;;;10.49;67.88;102321.59;5071696;28;20131;-62
2023/05/20 00:08:59;;;;;;;8.00;3.45;;;;;;;10.47;68.39;102324.25;5071943;28;20052;-62
2023/05/20 00:11:26;;;;;;;5.90;3.80;;;;;;;10.47;68.25;102317.19;5071781;28;20068;-60
2023/05/20 00:13:52;;;;;;;6.40;3.70;;;;;;;10.42;68.67;102324.34;5075339;28;20056;-61
2023/05/20 00:16:20;;;;;;;7.00;4.22;;;;;;;10.46;68.50;102323.41;5070864;28;20521;-61
2023/05/20 00:18:47;;;;;;;6.60;3.85;;;;;;;10.40;69.07;102328.81;5058229;28;20048;-62
2023/05/20 00:21:13;;;;;;;6.60;3.47;;;;;;;10.42;68.51;102329.63;5054205;28;20059;-62
2023/05/20 00:23:40;;;;;;;6.70;5.03;;;;;;;10.37;68.97;102334.16;5059713;28;20080;-60
2023/05/20 00:26:06;;;;;;;5.10;2.97;;;;;;;10.31;68.95;102336.88;5076365;28;20048;-61
2023/05/20 00:28:33;;;;;;;8.32;3.80;;;;;;;10.31;69.23;102336.00;5071584;28;20136;-60
2023/05/20 00:31:00;;;;;;;7.97;3.63;;;;;;;10.30;69.36;102329.88;5074421;28;20552;-60
2023/05/20 00:33:26;;;;;;;8.43;4.18;;;;;;;10.29;69.45;102328.09;5077008;28;20113;-61
2023/05/20 00:35:53;;;;;;;7.63;3.85;;;;;;;10.26;69.90;102323.75;5056497;28;20706;-61
2023/05/20 00:38:19;;;;;;;10.18;4.65;;;;;;;10.21;69.61;102330.03;5070538;28;20047;-61
2023/05/20 00:40:46;;;;;;;13.48;4.22;;;;;;;10.25;69.48;102322.03;5069314;28;20139;-61
2023/05/20 00:43:12;;;;;;;9.00;4.10;;;;;;;10.28;69.51;102319.31;5052131;28;20052;-61
2023/05/20 00:45:40;;;;;;;9.63;4.45;;;;;;;10.29;69.51;102328.09;5072405;28;20063;-61
2023/05/20 00:48:07;;;;;;;10.32;4.32;;;;;;;10.29;69.89;102323.69;5069927;28;20431;-62
2023/05/20 00:50:34;;;;;;;12.02;4.05;;;;;;;10.30;70.19;102321.94;5062642;28;20139;-61
2023/05/20 00:53:01;;;;;;;12.13;4.75;;;;;;;10.28;69.92;102326.34;5083780;28;20040;-61
2023/05/20 00:55:27;;;;;;;12.43;4.90;;;;;;;10.25;70.40;102316.72;5071042;28;20449;-61
2023/05/20 00:57:54;;;;;;;8.88;3.88;;;;;;;10.23;69.75;102323.81;5072287;28;20127;-61
2023/05/20 01:00:21;;;;;;;8.20;4.28;;;;;;;10.20;70.16;102313.31;5057900;28;20409;-61
2023/05/20 01:02:47;;;;;;;8.63;4.55;;;;;;;10.16;70.40;102316.03;5065985;28;20044;-61
2023/05/20 01:05:14;;;;;;;7.63;4.85;;;;;;;10.07;70.58;102307.38;5066781;28;20048;-61
2023/05/20 01:07:41;;;;;;;7.88;4.55;;;;;;;10.05;71.32;102303.91;5071787;28;20113;-61
2023/05/20 01:10:09;;;;;;;9.00;4.32;;;;;;;10.08;71.32;102309.09;5071815;28;20381;-61
2023/05/20 01:12:44;;;;;;;12.15;4.18;;;;;;;10.09;71.00;102305.56;5076939;28;20041;-60
2023/05/20 01:15:13;;;;;;;10.02;4.25;;;;;;;10.09;70.77;102305.56;5071149;28;20051;-60
2023/05/20 01:17:45;;;;;;;7.95;4.30;;;;;;;10.11;70.98;102309.06;5071994;28;20055;-60
2023/05/20 01:20:13;;;;;;;7.82;4.60;;;;;;;10.14;71.29;102302.00;5070248;28;20055;-60
2023/05/20 01:22:52;;;;;;;7.63;4.43;;;;;;;10.15;70.84;102306.34;5071672;28;20048;-60
2023/05/20 01:25:18;;;;;;;7.63;4.20;;;;;;;10.12;71.49;102307.31;5061420;28;20087;-60
2023/05/20 01:27:47;;;;;;;9.20;4.93;;;;;;;10.12;71.37;102309.94;5070687;28;20107;-60
2023/05/20 01:30:15;;;;;;;10.00;4.78;;;;;;;10.11;71.65;102298.47;5059297;28;20045;-60
2023/05/20 01:32:47;;;;;;;6.78;4.43;;;;;;;10.07;71.34;102307.38;5071862;28;20041;-61
2023/05/20 01:35:15;;;;;;;4.78;3.65;;;;;;;10.06;71.98;102304.78;5061188;28;20115;-60
2023/05/20 01:37:43;;;;;;;7.03;4.15;;;;;;;10.00;72.05;102289.03;5069136;28;20040;-60
2023/05/20 01:40:12;;;;;;;8.73;4.03;;;;;;;9.96;72.09;102290.88;5053832;28;20548;-60
2023/05/20 01:42:41;;;;;;;6.75;3.92;;;;;;;9.96;72.24;102288.22;5074151;28;20124;-61
2023/05/20 01:45:08;;;;;;;7.65;4.57;;;;;;;9.92;72.59;102289.16;5074752;28;20067;-60
2023/05/20 01:47:34;;;;;;;9.48;4.28;;;;;;;9.86;72.85;102287.53;5073832;28;20123;-61
2023/05/20 01:50:01;;;;;;;12.43;3.95;;;;;;;9.86;73.12;102291.94;5075432;28;20110;-60
2023/05/20 01:52:28;;;;;;;10.45;4.05;;;;;;;9.85;73.36;102284.91;5075746;28;20498;-60
2023/05/20 01:54:55;;;;;;;9.73;3.95;;;;;;;9.82;73.14;102285.81;5055988;28;20416;-60
2023/05/20 01:57:22;;;;;;;8.60;4.05;;;;;;;9.79;73.18;102279.72;5075326;28;20136;-60
2023/05/20 01:59:48;;;;;;;5.88;3.85;;;;;;;9.72;73.89;102279.81;5074869;28;20511;-61
2023/05/20 02:02:15;;;;;;;9.85;4.05;;;;;;;9.73;73.56;102281.56;5075241;28;20458;-61
2023/05/20 02:04:46;;;;;;;8.45;4.13;;;;;;;9.69;73.77;102282.56;5077883;28;20055;-60
2023/05/20 02:07:14;;;;;;;8.38;4.65;;;;;;;9.67;74.03;102276.41;5095477;28;20040;-61
2023/05/20 02:09:41;;;;;;;9.20;4.53;;;;;;;9.67;74.28;102284.31;5086418;28;20200;-61
2023/05/20 02:12:08;;;;;;;11.38;4.65;;;;;;;9.65;74.27;102283.50;5093067;28;20426;-60
2023/05/20 02:14:34;;;;;;;9.02;3.53;;;;;;;9.68;74.81;102283.44;5081976;28;20059;-60
2023/05/20 02:17:02;;;;;;;6.78;3.95;;;;;;;9.68;74.60;102278.16;5092306;28;20059;-60
2023/05/20 02:19:28;;;;;;;12.38;4.97;;;;;;;9.68;74.80;102285.22;5080636;28;20597;-61
2023/05/20 02:21:55;;;;;;;13.02;5.30;;;;;;;9.68;74.43;102286.06;5073580;28;20078;-61
2023/05/20 02:24:22;;;;;;;11.43;4.30;;;;;;;9.72;74.52;102287.75;5067964;28;20139;-61
2023/05/20 02:26:50;;;;;;;8.35;4.05;;;;;;;9.67;74.73;102286.09;5074754;28;20052;-61
2023/05/20 02:29:16;;;;;;;7.90;4.28;;;;;;;9.64;74.88;102284.38;5083290;28;20120;-61
2023/05/20 02:31:43;;;;;;;6.18;4.03;;;;;;;9.65;75.14;102283.50;5078269;28;20135;-61
2023/05/20 02:34:09;;;;;;;7.93;4.45;;;;;;;9.68;74.66;102278.16;5082589;28;20135;-61
2023/05/20 02:36:36;;;;;;;9.50;4.20;;;;;;;9.68;75.11;102288.72;5073794;28;20052;-61
2023/05/20 02:39:02;;;;;;;11.50;4.75;;;;;;;9.70;75.12;102280.78;5066759;28;20052;-61
2023/05/20 02:41:29;;;;;;;15.68;5.32;;;;;;;9.74;75.53;102283.34;5075478;28;20062;-61
2023/05/20 02:43:55;;;;;;;7.40;4.45;;;;;;;9.84;75.29;102293.72;5081625;28;20059;-60
2023/05/20 02:46:22;;;;;;;5.85;4.13;;;;;;;9.90;74.56;102288.31;5081545;28;20124;-60
2023/05/20 02:48:49;;;;;;;7.50;4.90;;;;;;;9.93;74.72;102293.56;5085940;28;20044;-60
2023/05/20 02:51:15;;;;;;;12.73;4.95;;;;;;;9.98;74.62;102296.13;5078703;28;20365;-61
2023/05/20 02:53:42;;;;;;;12.07;4.32;;;;;;;10.03;74.32;102294.25;5075463;28;20053;-61
2023/05/20 02:56:08;;;;;;;8.07;4.40;;;;;;;10.05;74.42;102298.63;5063714;28;20059;-61
2023/05/20 02:58:35;;;;;;;10.23;4.50;;;;;;;10.08;74.71;102292.41;5072879;28;20333;-61
2023/05/20 03:01:02;;;;;;;10.65;4.78;;;;;;;10.16;73.88;102294.91;5075859;28;20050;-61
2023/05/20 03:03:28;;;;;;;7.00;4.60;;;;;;;10.18;73.89;102303.66;5076012;28;20098;-61
2023/05/20 03:05:55;;;;;;;7.72;3.95;;;;;;;10.15;74.07;102299.31;5075098;28;20055;-61
2023/05/20 03:08:22;;;;;;;10.80;4.53;;;;;;;10.21;73.86;102303.59;5078488;28;20579;-62
2023/05/20 03:10:49;;;;;;;8.98;4.32;;;;;;;10.26;73.69;102307.03;5073473;28;20045;-61
2023/05/20 03:13:15;;;;;;;12.40;4.97;;;;;;;10.26;74.06;102304.38;5090669;28;20052;-62
2023/05/20 03:15:45;;;;;;;11.85;4.43;;;;;;;10.32;73.55;102300.75;5074470;28;20127;-60
2023/05/20 03:18:12;;;;;;;10.05;4.60;;;;;;;10.42;73.39;102308.50;5068453;28;20053;-62
2023/05/20 03:20:40;;;;;;;9.00;4.68;;;;;;;10.43;73.22;102310.25;5074695;28;20080;-61
2023/05/20 03:23:07;;;;;;;12.35;4.47;;;;;;;10.44;73.66;102309.31;5074250;28;20053;-62
2023/05/20 03:25:35;;;;;;;15.43;5.10;;;;;;;10.42;73.32;102302.34;5072791;28;20075;-61
2023/05/20 03:28:01;;;;;;;12.13;4.50;;;;;;;10.41;73.76;102303.22;5074875;28;20045;-61
2023/05/20 03:30:28;;;;;;;7.57;4.03;;;;;;;10.46;73.60;102304.91;5066788;28;20075;-61
2023/05/20 03:32:58;;;;;;;10.07;4.43;;;;;;;10.48;73.15;102304.88;5049384;28;20076;-60
2023/05/20 03:35:25;;;;;;;6.32;3.80;;;;;;;10.52;73.26;102308.31;5072126;28;20052;-61
2023/05/20 03:37:52;;;;;;;10.50;4.47;;;;;;;10.44;73.72;102306.69;5072919;28;20360;-61
2023/05/20 03:40:22;;;;;;;7.38;4.65;;;;;;;10.49;73.45;102303.09;5072697;28;20395;-61
2023/05/20 03:42:49;;;;;;;12.70;4.95;;;;;;;10.46;73.60;102299.63;5072766;28;20364;-60
2023/05/20 03:45:16;;;;;;;13.57;5.13;;;;;;;10.49;73.35;102308.38;5071171;28;20051;-60
2023/05/20 03:47:42;;;;;;;12.07;5.25;;;;;;;10.45;73.40;102311.06;5072661;28;20135;-60
2023/05/20 03:50:09;;;;;;;8.45;4.15;;;;;;;10.50;73.49;102313.63;5072862;28;20044;-60
2023/05/20 03:52:36;;;;;;;11.20;5.05;;;;;;;10.57;72.96;102306.44;5062716;28;20080;-60
2023/05/20 03:55:03;;;;;;;15.50;4.95;;;;;;;10.62;73.42;102301.91;5054822;28;20552;-60
2023/05/20 03:57:31;;;;;;;9.55;4.68;;;;;;;10.63;72.61;102306.31;5072763;28;20075;-60
2023/05/20 03:59:57;;;;;;;9.20;5.80;;;;;;;10.64;73.04;102306.28;5072899;28;20056;-60
2023/05/20 04:02:24;;;;;;;9.40;4.90;;;;;;;10.63;72.83;102301.03;5072467;28;20087;-60
2023/05/20 04:04:51;;;;;;;8.00;4.78;;;;;;;10.68;72.94;102301.81;5070824;28;20131;-61
2023/05/20 04:07:18;;;;;;;13.00;4.93;;;;;;;10.74;72.73;102293.75;5072407;28;20055;-61
2023/05/20 04:09:45;;;;;;;10.52;4.93;;;;;;;10.73;72.89;102302.56;5071953;28;20056;-61
2023/05/20 04:12:12;;;;;;;12.40;5.38;;;;;;;10.70;72.88;102301.78;5071141;28;20071;-61
2023/05/20 04:14:40;;;;;;;14.25;5.40;;;;;;;10.74;73.03;102299.03;5071740;28;20044;-60
2023/05/20 04:17:08;;;;;;;13.20;5.35;;;;;;;10.75;72.98;102290.16;5072722;28;20052;-60
2023/05/20 04:19:37;;;;;;;10.55;5.95;;;;;;;10.78;72.52;102295.41;5070914;28;20174;-61
2023/05/20 04:22:03;;;;;;;9.63;4.80;;;;;;;10.83;72.72;102293.50;5073051;28;20056;-61
2023/05/20 04:24:30;;;;;;;20.65;5.43;;;;;;;10.83;72.34;102298.81;5072135;28;20059;-61
2023/05/20 04:26:56;;;;;;;11.85;5.35;;;;;;;10.89;72.70;102302.25;5071894;28;20094;-61
2023/05/20 04:29:23;;;;;;;11.80;6.40;;;;;;;10.88;72.20;102295.22;5070837;28;20076;-61
2023/05/20 04:31:50;;;;;;;16.05;5.85;;;;;;;10.92;71.96;102296.88;5073284;28;20048;-61
2023/05/20 04:34:18;;;;;;;16.38;5.25;;;;;;;10.86;72.67;102302.31;5083014;28;20044;-61
2023/05/20 04:36:45;;;;;;;10.80;5.57;;;;;;;10.84;72.44;102300.56;5082103;28;20117;-61
2023/05/20 04:39:12;;;;;;;12.52;4.93;;;;;;;10.86;72.42;102302.31;5084073;28;20135;-61
2023/05/20 04:41:39;;;;;;;14.77;5.80;;;;;;;10.92;72.63;102302.16;5075240;28;20441;-60
2023/05/20 04:44:06;;;;;;;12.20;5.75;;;;;;;10.92;72.32;102313.63;5064922;28;20126;-61
2023/05/20 04:46:32;;;;;;;11.63;5.63;;;;;;;10.94;72.94;102303.00;5073657;28;20125;-60
2023/05/20 04:48:59;;;;;;;15.18;6.75;;;;;;;10.97;72.36;102305.59;5072696;28;20110;-60
2023/05/20 04:51:26;;;;;;;9.75;5.47;;;;;;;10.96;72.61;102293.25;5072074;28;20465;-60
2023/05/20 04:53:52;;;;;;;16.02;6.65;;;;;;;11.01;72.54;102300.16;5072309;28;20135;-60
2023/05/20 04:56:19;;;;;;;12.07;6.22;;;;;;;10.90;72.46;102294.25;5070543;28;20122;-60
2023/05/20 04:58:46;;;;;;;11.75;6.07;;;;;;;10.98;72.78;102297.59;5072472;28;20036;-60
2023/05/20 05:01:12;;;;;;;13.35;5.88;;;;;;;11.06;72.38;102294.78;5072101;28;20109;-60
2023/05/20 05:03:39;;;;;;;15.90;5.15;;;;;;;11.13;72.27;102280.53;5053422;28;20135;-61
2023/05/20 05:06:06;;;;;;;8.85;5.20;;;;;;;11.14;72.09;102282.25;5071455;28;20148;-61
2023/05/20 05:08:32;;;;;;;13.68;6.05;;;;;;;11.12;71.86;102289.34;5071621;28;20135;-61
2023/05/20 05:10:59;;;;;;;11.00;6.18;;;;;;;11.16;71.75;102285.72;5076320;28;20136;-61
2023/05/20 05:13:25;;;;;;;11.15;6.13;;;;;;;11.18;72.15;102281.28;5075618;28;20083;-61
2023/05/20 05:16:02;;;;;;;9.60;5.53;;;;;;;11.22;71.71;102283.84;5074260;28;20053;-60
2023/05/20 05:18:28;;;;;;;14.02;6.50;;;;;;;11.18;71.90;102283.91;5069754;28;20127;-60
2023/05/20 05:21:02;;;;;;;10.35;5.90;;;;;;;11.18;71.71;102278.63;5074040;28;20478;-61
2023/05/20 05:23:29;;;;;;;11.23;4.93;;;;;;;11.17;71.69;102276.88;5075196;28;20051;-60
2023/05/20 05:25:56;;;;;;;14.88;5.70;;;;;;;11.27;72.05;102276.66;5077910;28;20044;-60
2023/05/20 05:28:23;;;;;;;12.77;6.22;;;;;;;11.35;72.05;102285.28;5078546;28;20147;-61
2023/05/20 05:30:50;;;;;;;15.48;5.40;;;;;;;11.36;71.65;102279.06;5077212;28;20044;-60
2023/05/20 05:33:17;;;;;;;15.15;5.95;;;;;;;11.41;71.28;102285.16;5068896;28;20114;-60
2023/05/20 05:35:43;;;;;;;11.65;5.50;;;;;;;11.46;70.97;102277.06;5077557;28;20052;-60
2023/05/20 05:38:10;;;;;;;30.05;7.45;;;;;;;11.47;70.99;102284.97;5077570;28;20051;-60
2023/05/20 05:40:36;;;;;;;13.27;6.22;;;;;;;11.36;71.26;102276.41;5076938;28;20048;-61
2023/05/20 05:43:03;;;;;;;12.50;5.75;;;;;;;11.35;71.96;102274.69;5079895;28;20056;-62
2023/05/20 05:45:29;;;;;;;14.48;6.18;;;;;;;11.41;71.43;102269.25;5053647;28;20044;-60
2023/05/20 05:47:56;;;;;;;12.95;5.82;;;;;;;11.42;71.46;102270.97;5078005;28;20045;-60
2023/05/20 05:50:23;;;;;;;14.65;5.80;;;;;;;11.39;71.44;102271.06;5073055;28;20068;-60
2023/05/20 05:52:50;;;;;;;12.98;6.10;;;;;;;11.41;71.74;102274.56;5060259;28;20052;-60
2023/05/20 05:55:17;;;;;;;8.73;5.95;;;;;;;11.48;72.13;102277.91;5077135;28;20460;-60
2023/05/20 05:57:44;;;;;;;10.68;5.60;;;;;;;11.54;71.68;102270.69;5060402;28;20051;-60
2023/05/20 06:00:11;;;;;;;12.93;5.60;;;;;;;11.56;71.03;102268.84;5076922;28;20083;-60
2023/05/20 06:02:38;;;;;;;11.38;5.95;;;;;;;11.61;71.17;102266.09;5056489;28;20048;-60
2023/05/20 06:05:05;;;;;;;12.43;6.10;;;;;;;11.65;70.93;102261.59;5077410;28;20048;-60
2023/05/20 06:07:31;;;;;;;11.05;6.00;;;;;;;11.66;71.53;102263.34;5077990;28;20048;-60
2023/05/20 06:09:58;;;;;;;11.35;5.60;;;;;;;11.61;70.74;102265.22;5077964;28;20064;-60
2023/05/20 06:12:25;;;;;;;14.43;5.85;;;;;;;11.66;70.87;102260.69;5077874;28;20114;-60
2023/05/20 06:14:51;;;;;;;14.15;6.40;;;;;;;11.74;70.85;102261.34;5077290;28;20097;-61
2023/05/20 06:17:18;;;;;;;11.55;5.60;;;;;;;11.86;70.61;102266.31;5078137;28;20133;-61
2023/05/20 06:19:45;;;;;;;12.70;5.53;;;;;;;11.99;70.21;102271.31;5077312;28;20097;-61
2023/05/20 06:22:11;;;;;;;12.32;6.70;;;;;;;11.85;70.33;102269.88;5077844;28;20058;-61
2023/05/20 06:24:38;;;;;;;11.65;6.13;;;;;;;11.90;70.40;102278.56;5077569;28;20048;-61
2023/05/20 06:27:04;;;;;;;12.75;6.75;;;;;;;11.96;70.17;102276.69;5075409;28;20088;-61
2023/05/20 06:29:31;;;;;;;13.05;6.95;;;;;;;11.91;70.26;102275.03;5074704;28;20361;-61
2023/05/20 06:31:58;;;;;;;13.50;6.72;;;;;;;11.84;70.70;102281.38;5074704;28;20143;-61
2023/05/20 06:34:25;;;;;;;13.60;7.10;;;;;;;11.92;70.65;102284.72;5073298;28;20052;-61
2023/05/20 06:36:52;;;;;;;17.60;7.15;;;;;;;12.00;70.29;102284.53;5074507;28;20048;-61
2023/05/20 06:39:18;;;;;;;14.43;6.30;;;;;;;12.24;69.83;102288.28;5073007;28;20044;-62
2023/05/20 06:41:45;;;;;;;11.80;6.20;;;;;;;12.26;69.22;102282.91;5074961;28;20131;-61
2023/05/20 06:44:11;;;;;;;16.13;7.15;;;;;;;12.27;69.37;102288.16;5073107;28;20504;-62
2023/05/20 06:46:38;;;;;;;11.40;6.65;;;;;;;12.47;69.43;102289.38;5074490;28;20064;-61
2023/05/20 06:49:05;;;;;;;10.27;5.93;;;;;;;12.56;69.27;102283.81;5074052;28;20048;-62
2023/05/20 06:51:31;;;;;;;17.35;7.78;;;;;;;12.54;68.83;102290.97;5072081;28;20135;-61
2023/05/20 06:53:58;;;;;;;11.88;6.65;;;;;;;12.51;69.44;102293.69;5073044;28;20075;-61
2023/05/20 06:56:24;;;;;;;13.48;7.38;;;;;;;12.51;68.85;102285.75;5052629;28;20469;-61
2023/05/20 06:58:51;;;;;;;13.25;7.45;;;;;;;12.50;69.09;102289.31;5071833;28;20056;-61
2023/05/20 07:01:17;;;;;;;11.77;6.85;;;;;;;12.49;68.87;102277.84;5073318;28;20118;-61
2023/05/20 07:03:44;;;;;;;15.13;6.53;;;;;;;12.32;69.55;102281.88;5074335;28;20143;-61
2023/05/20 07:06:11;;;;;;;13.60;6.07;;;;;;;12.29;69.62;102281.06;5073432;28;20052;-61
2023/05/20 07:08:37;;;;;;;12.13;6.57;;;;;;;12.28;70.23;102278.47;5073932;28;20062;-61
2023/05/20 07:11:04;;;;;;;15.70;6.97;;;;;;;12.39;69.68;102280.78;5075557;28;20135;-61
2023/05/20 07:13:31;;;;;;;15.70;6.28;;;;;;;12.56;69.11;102272.34;5074088;28;20143;-61
2023/05/20 07:15:57;;;;;;;13.85;6.38;;;;;;;12.59;69.39;102273.13;5072989;28;20123;-61
2023/05/20 07:18:24;;;;;;;13.23;7.00;;;;;;;12.62;69.06;102267.72;5056321;28;20064;-60
2023/05/20 07:20:51;;;;;;;15.73;6.50;;;;;;;12.50;69.54;102273.38;5066850;28;20047;-61
2023/05/20 07:23:18;;;;;;;14.68;5.88;;;;;;;12.52;69.15;102260.97;5074242;28;20494;-61
2023/05/20 07:25:44;;;;;;;15.13;6.45;;;;;;;12.72;68.80;102257.72;5073158;28;20049;-61
2023/05/20 07:28:11;;;;;;;12.43;6.22;;;;;;;12.87;68.46;102248.41;5072876;28;20251;-61
2023/05/20 07:30:37;;;;;;;17.40;7.57;;;;;;;12.74;68.49;102252.34;5081796;28;20135;-61
2023/05/20 07:33:04;;;;;;;12.63;6.32;;;;;;;12.80;68.43;102254.78;5081994;28;20044;-61
2023/05/20 07:35:31;;;;;;;10.60;6.55;;;;;;;12.96;67.78;102261.38;5083867;28;20050;-61
2023/05/20 07:37:58;;;;;;;9.85;6.03;;;;;;;12.93;67.74;102261.47;5069693;28;20056;-61
2023/05/20 07:40:24;;;;;;;9.73;5.80;;;;;;;12.75;68.19;102254.06;5068665;28;20518;-61
2023/05/20 07:42:51;;;;;;;16.20;7.32;;;;;;;12.68;68.60;102250.75;5064482;28;20075;-60
2023/05/20 07:45:17;;;;;;;11.73;7.05;;;;;;;12.64;68.70;102255.28;5058102;28;20040;-61
2023/05/20 07:47:44;;;;;;;12.85;7.50;;;;;;;12.77;68.31;102247.81;5095111;28;20080;-61
2023/05/20 07:50:11;;;;;;;10.90;7.13;;;;;;;12.87;68.24;102244.88;5081763;28;20044;-61
2023/05/20 07:52:37;;;;;;;15.90;6.53;;;;;;;12.88;67.96;102251.91;5076712;28;20091;-61
2023/05/20 07:55:21;;;;;;;11.23;6.63;;;;;;;13.12;67.25;102247.59;5074278;28;20045;-61
2023/05/20 07:57:48;;;;;;;18.17;6.43;;;;;;;13.33;66.75;102238.97;5077711;28;20080;-61
2023/05/20 08:00:14;;;;;;;12.13;7.05;;;;;;;13.53;66.02;102234.75;5063942;28;20039;-62
2023/05/20 08:02:41;;;;;;;12.68;6.20;;;;;;;13.72;65.43;102241.16;5077014;28;20492;-61
2023/05/20 08:05:08;;;;;;;10.70;5.80;;;;;;;13.82;64.71;102240.84;5072504;28;20099;-61
2023/05/20 08:07:34;;;;;;;11.80;6.45;;;;;;;13.87;65.03;102238.91;5082951;28;20109;-60
2023/05/20 08:10:01;;;;;;;9.23;6.05;;;;;;;13.99;64.25;102227.81;5076985;28;20466;-60
2023/05/20 08:12:28;;;;;;;9.98;6.03;;;;;;;13.85;64.46;102232.78;5074581;28;20052;-60
2023/05/20 08:14:54;;;;;;;8.85;6.07;;;;;;;13.75;64.39;102225.13;5075337;28;20059;-61
2023/05/20 08:17:21;;;;;;;11.57;5.90;;;;;;;13.81;64.57;102225.81;5076357;28;20066;-61
2023/05/20 08:19:48;;;;;;;10.93;5.75;;;;;;;13.66;64.73;102220.13;5072213;28;20044;-61
2023/05/20 08:22:14;;;;;;;13.23;6.85;;;;;;;13.81;64.69;102223.16;5072779;28;20055;-61
2023/05/20 08:24:41;;;;;;;10.00;5.45;;;;;;;13.94;64.14;102216.47;5071715;28;20467;-61
2023/05/20 08:27:07;;;;;;;9.07;5.53;;;;;;;14.24;63.45;102210.97;5055107;28;20114;-61
2023/05/20 08:29:34;;;;;;;7.95;5.30;;;;;;;14.52;62.59;102210.75;5076561;28;20132;-60
2023/05/20 08:32:00;;;;;;;10.10;5.35;;;;;;;14.89;61.58;102208.44;5071445;28;20048;-61
2023/05/20 08:34:27;;;;;;;11.40;6.22;;;;;;;14.70;61.51;102203.88;5074650;28;20044;-62
2023/05/20 08:36:54;;;;;;;8.82;5.22;;;;;;;14.94;60.41;102191.38;5072934;28;20405;-61
2023/05/20 08:39:21;;;;;;;10.60;6.28;;;;;;;15.16;60.26;102196.66;5071647;28;20484;-62
2023/05/20 08:41:47;;;;;;;10.27;5.45;;;;;;;15.11;59.80;102187.16;5072751;28;20079;-61
2023/05/20 08:44:16;;;;;;;10.50;5.30;;;;;;;14.96;60.15;102196.63;5072988;28;20163;-62
2023/05/20 08:46:44;;;;;;;7.63;5.05;;;;;;;14.79;60.92;102208.81;5072342;28;20049;-61
2023/05/20 08:49:11;;;;;;;9.55;5.75;;;;;;;14.98;60.43;102208.09;5055526;28;20135;-62
2023/05/20 08:51:38;;;;;;;8.10;5.13;;;;;;;15.06;59.87;102205.97;5071841;28;20508;-62
2023/05/20 08:54:07;;;;;;;8.98;5.30;;;;;;;14.86;60.09;102199.66;5074259;28;20047;-61
2023/05/20 08:56:34;;;;;;;8.43;5.55;;;;;;;14.79;60.59;102199.97;5079263;28;20463;-61
2023/05/20 08:59:02;;;;;;;13.07;5.53;;;;;;;14.67;60.94;102206.66;5089137;28;20066;-61
2023/05/20 09:01:29;;;;;;;12.15;6.38;;;;;;;14.89;60.53;102208.44;5077983;28;20052;-61
2023/05/20 09:03:55;;;;;;;9.02;5.40;;;;;;;15.19;59.82;102203.66;5091010;28;20070;-61
2023/05/20 09:06:22;;;;;;;9.05;5.78;;;;;;;15.22;59.51;102217.72;5071781;28;20052;-60
2023/05/20 09:08:50;;;;;;;10.13;5.88;;;;;;;15.16;59.66;102209.97;5073266;28;20368;-61
2023/05/20 09:11:17;;;;;;;12.20;5.80;;;;;;;14.95;60.38;102208.22;5076973;28;20058;-60
2023/05/20 09:13:44;;;;;;;12.07;5.95;;;;;;;14.78;60.70;102207.09;5055841;28;20143;-62
2023/05/20 09:16:11;;;;;;;13.15;6.82;;;;;;;14.63;61.55;102213.00;5081907;28;20134;-62
2023/05/20 09:18:39;;;;;;;8.85;5.25;;;;;;;14.72;61.67;102217.97;5073034;28;20680;-61
2023/05/20 09:21:05;;;;;;;11.70;5.40;;;;;;;14.91;61.48;102211.91;5075018;28;20380;-61
2023/05/20 09:23:35;;;;;;;13.38;5.95;;;;;;;15.16;60.59;102203.78;5074147;28;20053;-61
2023/05/20 09:26:03;;;;;;;13.15;6.30;;;;;;;15.14;60.35;102211.84;5076055;28;20054;-63
2023/05/20 09:28:29;;;;;;;12.55;6.45;;;;;;;15.21;59.92;102205.31;5077127;28;20090;-61
2023/05/20 09:31:00;;;;;;;9.90;5.55;;;;;;;15.39;59.68;102202.81;5079588;28;20139;-61
2023/05/20 09:33:31;;;;;;;10.48;6.03;;;;;;;15.48;59.50;102217.53;5073511;28;20135;-62
2023/05/20 09:36:07;;;;;;;10.70;5.20;;;;;;;15.52;59.65;102206.69;5074329;28;20045;-62
2023/05/20 09:38:37;;;;;;;12.90;6.38;;;;;;;15.67;58.90;102206.94;5076061;28;20067;-62
2023/05/20 09:41:10;;;;;;;10.57;5.68;;;;;;;15.52;59.35;102206.69;5075300;28;20084;-61
2023/05/20 09:43:41;;;;;;;13.35;6.07;;;;;;;15.69;58.62;102207.72;5057933;28;20485;-61
2023/05/20 09:46:08;;;;;;;14.00;6.07;;;;;;;15.76;58.36;102206.59;5068546;28;20105;-61
2023/05/20 09:48:38;;;;;;;14.63;6.95;;;;;;;15.59;59.08;102204.59;5081524;28;20472;-61
2023/05/20 09:51:06;;;;;;;15.50;6.63;;;;;;;15.52;59.28;102204.00;5080959;28;20044;-61
2023/05/20 09:53:33;;;;;;;11.25;7.18;;;;;;;15.65;58.99;102200.81;5084454;28;20052;-60
2023/05/20 09:56:00;;;;;;;11.25;6.40;;;;;;;15.80;58.99;102202.81;5077541;28;20777;-62
2023/05/20 09:58:28;;;;;;;11.55;6.80;;;;;;;15.81;58.62;102206.34;5080832;28;20052;-61
2023/05/20 10:00:55;;;;;;;9.30;6.95;;;;;;;15.62;59.01;102187.63;5080881;28;20056;-61
2023/05/20 10:03:23;;;;;;;12.38;6.78;;;;;;;15.69;59.20;102175.75;5061887;28;20059;-62
2023/05/20 10:08:17;;;;;;;12.48;7.65;;;;;;;16.01;58.16;102178.81;5109823;27;20166;-62
2023/05/20 10:10:58;;;;;;;10.93;7.28;;;;;;;16.00;57.68;102182.41;5110917;28;20079;-62
2023/05/20 10:14:09;;;;;;;10.60;7.50;;;;;;;16.60;56.48;102182.25;5127159;27;20447;-61
2023/05/20 10:16:51;;;;;;;10.27;7.07;;;;;;;17.04;55.41;102185.44;5046499;28;20073;-62
2023/05/20 10:19:25;;;;;;;11.75;6.13;;;;;;;16.95;55.54;102180.56;5088959;28;20444;-60
2023/05/20 10:22:09;;;;;;;13.07;6.93;;;;;;;17.12;54.22;102173.50;5115571;28;20066;-60
2023/05/20 10:24:41;;;;;;;11.57;6.55;;;;;;;16.46;55.85;102174.91;5114807;28;20047;-60
2023/05/20 10:27:11;;;;;;;10.98;7.28;;;;;;;16.30;56.98;102182.78;5118242;28;20048;-60
2023/05/20 10:29:48;;;;;;;12.55;6.80;;;;;;;16.29;57.06;102184.56;5110806;28;20050;-63
2023/05/20 10:32:30;;;;;;;11.70;7.07;;;;;;;16.41;56.30;102171.59;5115191;27;20113;-60
2023/05/20 10:35:08;;;;;;;14.57;7.00;;;;;;;16.55;56.31;102163.78;5108992;28;20113;-60
2023/05/20 10:37:43;;;;;;;11.43;6.97;;;;;;;16.72;55.94;102175.44;5111787;27;20381;-60
2023/05/20 10:40:12;;;;;;;9.45;6.68;;;;;;;16.95;54.95;102167.22;5125821;28;20436;-60
2023/05/20 10:42:39;;;;;;;12.45;7.22;;;;;;;17.14;54.52;102161.78;5109447;28;20127;-60
2023/05/20 10:45:07;;;;;;;15.20;7.25;;;;;;;17.25;54.64;102170.13;5108500;28;20139;-62
2023/05/20 10:47:34;;;;;;;14.80;7.10;;;;;;;17.84;53.28;102161.69;5111537;28;20127;-60
2023/05/20 10:50:03;;;;;;;16.10;8.35;;;;;;;18.07;52.48;102151.59;5104195;28;20438;-60
2023/05/20 10:52:35;;;;;;;14.23;7.55;;;;;;;18.47;51.57;102150.22;5100091;28;20040;-60
2023/05/20 10:55:03;;;;;;;12.93;7.47;;;;;;;18.42;51.25;102149.63;5106242;28;20123;-61
2023/05/20 10:57:33;;;;;;;15.60;7.50;;;;;;;18.26;51.40;102146.94;5102428;28;20044;-60
2023/05/20 11:00:00;;;;;;;10.35;7.10;;;;;;;17.88;52.38;102146.38;5105278;28;20127;-60
2023/05/20 11:02:27;;;;;;;12.48;7.32;;;;;;;17.91;52.72;102139.03;5125241;28;20482;-60
2023/05/20 11:04:58;;;;;;;12.95;7.10;;;;;;;19.00;49.66;102131.16;5106741;28;20101;-60
2023/05/20 11:07:26;;;;;;;11.07;6.72;;;;;;;19.94;47.29;102128.09;5106928;28;20052;-60
2023/05/20 11:09:54;;;;;;;14.75;7.10;;;;;;;18.81;49.51;102126.84;5114764;28;20055;-60
2023/05/20 11:12:25;;;;;;;15.77;8.18;;;;;;;18.41;50.79;102120.28;5106602;28;20070;-60
2023/05/20 11:14:52;;;;;;;10.95;7.53;;;;;;;18.42;51.08;102114.84;5117622;27;20105;-60
2023/05/20 11:17:19;;;;;;;11.88;7.57;;;;;;;18.17;51.53;102124.22;5104373;28;20680;-60
2023/05/20 11:19:47;;;;;;;13.65;7.45;;;;;;;18.79;49.95;102111.81;5089024;28;20083;-62
2023/05/20 11:22:13;;;;;;;14.05;6.85;;;;;;;19.62;47.47;102115.72;5094658;28;20465;-61
2023/05/20 11:24:40;;;;;;;12.82;6.82;;;;;;;21.95;42.78;102126.22;5092996;28;20094;-61
2023/05/20 11:27:07;;;;;;;13.98;6.85;;;;;;;21.37;43.36;102120.44;5092526;28;20059;-61